sensor_id;sensor_type;location;lat;lon;timestamp;temperature;humidity
52297;DHT22;38244;51.046;17.038;2022-08-07T00:01:21;17.41;53.96
52297;DHT22;38244;51.046;17.038;2022-08-07T00:03:48;17.34;53.77
52297;DHT22;38244;51.046;17.038;2022-08-07T00:06:14;17.24;53.95
52297;DHT22;38244;51.046;17.038;2022-08-07T00:12:06;17.13;55.05
52297;DHT22;38244;51.046;17.038;2022-08-07T00:14:33;17.07;55.01
52297;DHT22;38244;51.046;17.038;2022-08-07T00:17:00;17.03;54.92
52297;DHT22;38244;51.046;17.038;2022-08-07T00:19:49;17.00;55.03
52297;DHT22;38244;51.046;17.038;2022-08-07T00:22:15;16.93;55.63
52297;DHT22;38244;51.046;17.038;2022-08-07T00:24:42;16.90;55.70
52297;DHT22;38244;51.046;17.038;2022-08-07T00:27:08;16.86;55.27
52297;DHT22;38244;51.046;17.038;2022-08-07T00:29:34;16.79;55.32
52297;DHT22;38244;51.046;17.038;2022-08-07T00:32:01;16.70;55.60
52297;DHT22;38244;51.046;17.038;2022-08-07T00:34:28;16.65;56.03
52297;DHT22;38244;51.046;17.038;2022-08-07T00:36:55;16.63;56.10
52297;DHT22;38244;51.046;17.038;2022-08-07T00:39:24;16.54;56.43
52297;DHT22;38244;51.046;17.038;2022-08-07T00:41:52;16.48;56.67
52297;DHT22;38244;51.046;17.038;2022-08-07T00:44:19;16.45;56.87
52297;DHT22;38244;51.046;17.038;2022-08-07T00:49:30;16.31;56.68
52297;DHT22;38244;51.046;17.038;2022-08-07T00:51:57;16.27;56.96
52297;DHT22;38244;51.046;17.038;2022-08-07T00:54:26;16.21;56.96
52297;DHT22;38244;51.046;17.038;2022-08-07T00:56:52;16.15;57.39
52297;DHT22;38244;51.046;17.038;2022-08-07T00:59:19;16.09;57.37
52297;DHT22;38244;51.046;17.038;2022-08-07T01:01:45;16.06;57.76
52297;DHT22;38244;51.046;17.038;2022-08-07T01:04:25;15.99;58.10
52297;DHT22;38244;51.046;17.038;2022-08-07T01:06:51;15.93;58.32
52297;DHT22;38244;51.046;17.038;2022-08-07T01:09:39;15.89;59.06
52297;DHT22;38244;51.046;17.038;2022-08-07T01:12:06;15.81;58.67
52297;DHT22;38244;51.046;17.038;2022-08-07T01:16:59;15.72;59.03
52297;DHT22;38244;51.046;17.038;2022-08-07T01:19:27;15.68;59.71
52297;DHT22;38244;51.046;17.038;2022-08-07T01:21:55;15.67;59.47
52297;DHT22;38244;51.046;17.038;2022-08-07T01:24:22;15.68;60.00
52297;DHT22;38244;51.046;17.038;2022-08-07T01:26:50;15.71;59.71
52297;DHT22;38244;51.046;17.038;2022-08-07T01:29:17;15.71;59.80
52297;DHT22;38244;51.046;17.038;2022-08-07T01:31:44;15.74;59.82
52297;DHT22;38244;51.046;17.038;2022-08-07T01:34:11;15.76;60.04
52297;DHT22;38244;51.046;17.038;2022-08-07T01:36:39;15.76;60.08
52297;DHT22;38244;51.046;17.038;2022-08-07T01:39:27;15.76;60.13
52297;DHT22;38244;51.046;17.038;2022-08-07T01:41:54;15.75;60.28
52297;DHT22;38244;51.046;17.038;2022-08-07T01:44:20;15.76;60.27
52297;DHT22;38244;51.046;17.038;2022-08-07T01:46:47;15.71;60.22
52297;DHT22;38244;51.046;17.038;2022-08-07T01:49:21;15.64;59.98
52297;DHT22;38244;51.046;17.038;2022-08-07T01:51:51;15.56;60.50
52297;DHT22;38244;51.046;17.038;2022-08-07T01:54:20;15.46;60.38
52297;DHT22;38244;51.046;17.038;2022-08-07T01:56:52;15.39;60.28
52297;DHT22;38244;51.046;17.038;2022-08-07T02:04:37;15.10;60.82
52297;DHT22;38244;51.046;17.038;2022-08-07T02:07:03;15.03;61.07
52297;DHT22;38244;51.046;17.038;2022-08-07T02:12:57;14.89;62.09
52297;DHT22;38244;51.046;17.038;2022-08-07T02:15:26;14.82;62.08
52297;DHT22;38244;51.046;17.038;2022-08-07T02:17:57;14.72;62.04
52297;DHT22;38244;51.046;17.038;2022-08-07T02:20:25;14.70;62.89
52297;DHT22;38244;51.046;17.038;2022-08-07T02:22:55;15.13;61.82
52297;DHT22;38244;51.046;17.038;2022-08-07T02:25:23;15.94;59.23
52297;DHT22;38244;51.046;17.038;2022-08-07T02:27:51;16.15;57.80
52297;DHT22;38244;51.046;17.038;2022-08-07T02:30:17;15.78;58.78
52297;DHT22;38244;51.046;17.038;2022-08-07T02:32:44;15.48;59.63
52297;DHT22;38244;51.046;17.038;2022-08-07T02:35:12;15.23;60.14
52297;DHT22;38244;51.046;17.038;2022-08-07T02:37:41;15.07;60.91
52297;DHT22;38244;51.046;17.038;2022-08-07T02:40:19;14.88;61.36
52297;DHT22;38244;51.046;17.038;2022-08-07T02:42:46;14.77;61.36
52297;DHT22;38244;51.046;17.038;2022-08-07T02:45:15;14.63;61.99
52297;DHT22;38244;51.046;17.038;2022-08-07T02:47:42;14.53;62.51
52297;DHT22;38244;51.046;17.038;2022-08-07T02:50:08;14.89;62.58
52297;DHT22;38244;51.046;17.038;2022-08-07T02:52:39;15.67;60.35
52297;DHT22;38244;51.046;17.038;2022-08-07T02:55:14;16.27;58.71
52297;DHT22;38244;51.046;17.038;2022-08-07T02:57:41;16.28;57.60
52297;DHT22;38244;51.046;17.038;2022-08-07T03:05:14;15.19;60.27
52297;DHT22;38244;51.046;17.038;2022-08-07T03:07:42;14.96;60.82
52297;DHT22;38244;51.046;17.038;2022-08-07T03:10:09;14.79;61.15
52297;DHT22;38244;51.046;17.038;2022-08-07T03:12:37;14.66;61.82
52297;DHT22;38244;51.046;17.038;2022-08-07T03:15:06;14.52;62.44
52297;DHT22;38244;51.046;17.038;2022-08-07T03:17:32;14.81;62.33
52297;DHT22;38244;51.046;17.038;2022-08-07T03:20:00;15.61;61.36
52297;DHT22;38244;51.046;17.038;2022-08-07T03:22:27;16.20;59.63
52297;DHT22;38244;51.046;17.038;2022-08-07T03:27:20;16.52;56.97
52297;DHT22;38244;51.046;17.038;2022-08-07T03:29:50;16.02;58.27
52297;DHT22;38244;51.046;17.038;2022-08-07T03:32:29;15.61;59.61
52297;DHT22;38244;51.046;17.038;2022-08-07T03:35:04;15.30;60.30
52297;DHT22;38244;51.046;17.038;2022-08-07T03:37:33;15.07;61.32
52297;DHT22;38244;51.046;17.038;2022-08-07T03:40:00;14.88;62.10
52297;DHT22;38244;51.046;17.038;2022-08-07T03:42:31;14.74;62.79
52297;DHT22;38244;51.046;17.038;2022-08-07T03:44:56;15.10;62.77
52297;DHT22;38244;51.046;17.038;2022-08-07T03:47:22;15.86;60.22
52297;DHT22;38244;51.046;17.038;2022-08-07T03:52:17;16.51;58.11
52297;DHT22;38244;51.046;17.038;2022-08-07T03:54:45;16.09;58.87
52297;DHT22;38244;51.046;17.038;2022-08-07T03:57:12;15.74;59.72
52297;DHT22;38244;51.046;17.038;2022-08-07T03:59:40;15.51;60.29
52297;DHT22;38244;51.046;17.038;2022-08-07T04:02:06;15.37;60.77
52297;DHT22;38244;51.046;17.038;2022-08-07T04:04:34;15.26;61.83
52297;DHT22;38244;51.046;17.038;2022-08-07T04:07:00;15.22;61.43
52297;DHT22;38244;51.046;17.038;2022-08-07T04:09:27;15.27;61.45
52297;DHT22;38244;51.046;17.038;2022-08-07T04:11:54;15.40;61.25
52297;DHT22;38244;51.046;17.038;2022-08-07T04:14:22;16.15;60.53
52297;DHT22;38244;51.046;17.038;2022-08-07T04:16:49;17.41;57.71
52297;DHT22;38244;51.046;17.038;2022-08-07T04:19:16;18.77;54.53
52297;DHT22;38244;51.046;17.038;2022-08-07T04:21:43;20.13;51.60
52297;DHT22;38244;51.046;17.038;2022-08-07T04:24:10;21.44;49.14
52297;DHT22;38244;51.046;17.038;2022-08-07T04:26:43;22.71;45.81
52297;DHT22;38244;51.046;17.038;2022-08-07T04:32:35;25.52;40.41
52297;DHT22;38244;51.046;17.038;2022-08-07T04:35:05;26.61;38.33
52297;DHT22;38244;51.046;17.038;2022-08-07T04:37:32;27.64;36.67
52297;DHT22;38244;51.046;17.038;2022-08-07T04:40:01;28.63;34.84
52297;DHT22;38244;51.046;17.038;2022-08-07T04:42:28;29.62;33.00
52297;DHT22;38244;51.046;17.038;2022-08-07T04:44:57;30.50;31.86
52297;DHT22;38244;51.046;17.038;2022-08-07T04:47:56;31.42;29.90
52297;DHT22;38244;51.046;17.038;2022-08-07T04:50:51;32.41;28.74
52297;DHT22;38244;51.046;17.038;2022-08-07T04:53:30;33.32;27.47
52297;DHT22;38244;51.046;17.038;2022-08-07T04:55:59;34.27;25.86
52297;DHT22;38244;51.046;17.038;2022-08-07T04:58:52;34.95;24.72
52297;DHT22;38244;51.046;17.038;2022-08-07T05:01:46;35.79;24.35
52297;DHT22;38244;51.046;17.038;2022-08-07T05:04:49;36.61;22.98
52297;DHT22;38244;51.046;17.038;2022-08-07T05:07:20;37.41;22.18
52297;DHT22;38244;51.046;17.038;2022-08-07T05:10:13;37.92;22.10
52297;DHT22;38244;51.046;17.038;2022-08-07T05:12:55;38.50;25.37
52297;DHT22;38244;51.046;17.038;2022-08-07T05:15:32;38.81;20.82
52297;DHT22;38244;51.046;17.038;2022-08-07T05:18:29;39.15;20.20
52297;DHT22;38244;51.046;17.038;2022-08-07T05:20:53;39.56;19.67
52297;DHT22;38244;51.046;17.038;2022-08-07T05:23:41;40.08;19.79
52297;DHT22;38244;51.046;17.038;2022-08-07T05:26:19;40.67;18.56
52297;DHT22;38244;51.046;17.038;2022-08-07T05:32:11;42.05;17.43
52297;DHT22;38244;51.046;17.038;2022-08-07T05:34:40;42.60;17.25
52297;DHT22;38244;51.046;17.038;2022-08-07T05:37:07;43.18;16.88
52297;DHT22;38244;51.046;17.038;2022-08-07T05:39:34;43.63;16.31
52297;DHT22;38244;51.046;17.038;2022-08-07T05:42:03;44.01;16.20
52297;DHT22;38244;51.046;17.038;2022-08-07T05:44:35;44.39;15.83
52297;DHT22;38244;51.046;17.038;2022-08-07T05:47:01;44.67;15.62
52297;DHT22;38244;51.046;17.038;2022-08-07T05:49:28;44.91;15.40
52297;DHT22;38244;51.046;17.038;2022-08-07T05:51:57;45.25;15.16
52297;DHT22;38244;51.046;17.038;2022-08-07T05:54:24;45.81;14.98
52297;DHT22;38244;51.046;17.038;2022-08-07T05:56:50;46.33;14.65
52297;DHT22;38244;51.046;17.038;2022-08-07T05:59:20;46.82;14.19
52297;DHT22;38244;51.046;17.038;2022-08-07T06:01:49;47.04;14.18
52297;DHT22;38244;51.046;17.038;2022-08-07T06:04:18;47.31;14.11
52297;DHT22;38244;51.046;17.038;2022-08-07T06:06:45;47.72;13.83
52297;DHT22;38244;51.046;17.038;2022-08-07T06:09:14;48.11;13.81
52297;DHT22;38244;51.046;17.038;2022-08-07T06:11:42;48.26;13.69
52297;DHT22;38244;51.046;17.038;2022-08-07T06:14:08;48.43;13.50
52297;DHT22;38244;51.046;17.038;2022-08-07T06:16:36;48.55;13.30
52297;DHT22;38244;51.046;17.038;2022-08-07T06:19:42;48.49;13.50
52297;DHT22;38244;51.046;17.038;2022-08-07T06:22:09;48.49;13.23
52297;DHT22;38244;51.046;17.038;2022-08-07T06:24:35;48.46;13.26
52297;DHT22;38244;51.046;17.038;2022-08-07T06:27:03;48.77;13.38
52297;DHT22;38244;51.046;17.038;2022-08-07T06:29:30;49.35;13.32
52297;DHT22;38244;51.046;17.038;2022-08-07T06:31:56;49.79;12.77
52297;DHT22;38244;51.046;17.038;2022-08-07T06:34:24;49.94;12.79
52297;DHT22;38244;51.046;17.038;2022-08-07T06:36:50;50.03;12.57
52297;DHT22;38244;51.046;17.038;2022-08-07T06:39:17;50.00;12.33
52297;DHT22;38244;51.046;17.038;2022-08-07T06:42:13;49.98;12.52
52297;DHT22;38244;51.046;17.038;2022-08-07T06:44:40;50.01;12.59
52297;DHT22;38244;51.046;17.038;2022-08-07T06:47:07;50.17;12.45
52297;DHT22;38244;51.046;17.038;2022-08-07T06:49:36;50.29;12.25
52297;DHT22;38244;51.046;17.038;2022-08-07T06:52:03;50.28;12.10
52297;DHT22;38244;51.046;17.038;2022-08-07T06:54:31;50.01;12.22
52297;DHT22;38244;51.046;17.038;2022-08-07T06:56:58;49.86;12.18
52297;DHT22;38244;51.046;17.038;2022-08-07T06:59:35;49.98;12.43
52297;DHT22;38244;51.046;17.038;2022-08-07T07:01:59;50.32;12.22
52297;DHT22;38244;51.046;17.038;2022-08-07T07:04:26;50.73;11.89
52297;DHT22;38244;51.046;17.038;2022-08-07T07:06:55;50.83;11.76
52297;DHT22;38244;51.046;17.038;2022-08-07T07:09:29;50.74;11.87
52297;DHT22;38244;51.046;17.038;2022-08-07T07:14:43;51.20;11.89
52297;DHT22;38244;51.046;17.038;2022-08-07T07:17:13;51.41;11.97
52297;DHT22;38244;51.046;17.038;2022-08-07T07:19:43;51.63;11.65
52297;DHT22;38244;51.046;17.038;2022-08-07T07:22:09;51.87;11.84
52297;DHT22;38244;51.046;17.038;2022-08-07T07:24:37;52.37;11.78
52297;DHT22;38244;51.046;17.038;2022-08-07T07:27:05;52.86;11.23
52297;DHT22;38244;51.046;17.038;2022-08-07T07:32:58;53.01;11.13
52297;DHT22;38244;51.046;17.038;2022-08-07T07:35:26;53.11;10.63
52297;DHT22;38244;51.046;17.038;2022-08-07T07:37:55;52.74;10.86
52297;DHT22;38244;51.046;17.038;2022-08-07T07:40:24;52.51;10.90
52297;DHT22;38244;51.046;17.038;2022-08-07T07:42:53;52.34;11.06
52297;DHT22;38244;51.046;17.038;2022-08-07T07:45:25;52.49;11.07
52297;DHT22;38244;51.046;17.038;2022-08-07T07:47:53;52.58;11.22
52297;DHT22;38244;51.046;17.038;2022-08-07T07:50:23;52.69;11.09
52297;DHT22;38244;51.046;17.038;2022-08-07T07:52:52;52.66;11.00
52297;DHT22;38244;51.046;17.038;2022-08-07T07:55:20;52.61;11.06
52297;DHT22;38244;51.046;17.038;2022-08-07T07:57:49;52.56;11.00
52297;DHT22;38244;51.046;17.038;2022-08-07T08:00:18;52.41;11.23
52297;DHT22;38244;51.046;17.038;2022-08-07T08:02:47;52.09;11.22
52297;DHT22;38244;51.046;17.038;2022-08-07T08:05:18;51.79;11.12
52297;DHT22;38244;51.046;17.038;2022-08-07T08:07:45;51.68;11.43
52297;DHT22;38244;51.046;17.038;2022-08-07T08:10:13;51.84;10.97
52297;DHT22;38244;51.046;17.038;2022-08-07T08:12:42;51.52;10.86
52297;DHT22;38244;51.046;17.038;2022-08-07T08:15:10;51.29;10.97
52297;DHT22;38244;51.046;17.038;2022-08-07T08:17:37;50.90;10.88
52297;DHT22;38244;51.046;17.038;2022-08-07T08:22:56;50.92;11.52
52297;DHT22;38244;51.046;17.038;2022-08-07T08:25:43;51.05;10.63
52297;DHT22;38244;51.046;17.038;2022-08-07T08:28:34;50.66;10.98
52297;DHT22;38244;51.046;17.038;2022-08-07T08:31:03;50.86;10.84
52297;DHT22;38244;51.046;17.038;2022-08-07T08:33:32;50.87;11.12
52297;DHT22;38244;51.046;17.038;2022-08-07T08:36:01;51.17;10.98
52297;DHT22;38244;51.046;17.038;2022-08-07T08:38:41;51.18;10.89
52297;DHT22;38244;51.046;17.038;2022-08-07T08:41:42;50.97;11.12
52297;DHT22;38244;51.046;17.038;2022-08-07T08:53:21;49.95;11.38
52297;DHT22;38244;51.046;17.038;2022-08-07T08:55:57;50.13;10.48
52297;DHT22;38244;51.046;17.038;2022-08-07T08:58:52;50.26;10.63
52297;DHT22;38244;51.046;17.038;2022-08-07T09:01:33;49.60;10.53
52297;DHT22;38244;51.046;17.038;2022-08-07T09:04:32;48.89;10.95
52297;DHT22;38244;51.046;17.038;2022-08-07T09:07:17;48.86;11.07
52297;DHT22;38244;51.046;17.038;2022-08-07T09:10:13;48.91;10.75
52297;DHT22;38244;51.046;17.038;2022-08-07T09:12:53;49.01;10.62
52297;DHT22;38244;51.046;17.038;2022-08-07T09:30:09;47.45;11.87
52297;DHT22;38244;51.046;17.038;2022-08-07T09:33:14;47.21;12.19
52297;DHT22;38244;51.046;17.038;2022-08-07T09:36:02;45.56;11.82
52297;DHT22;38244;51.046;17.038;2022-08-07T09:53:54;43.33;13.75
52297;DHT22;38244;51.046;17.038;2022-08-07T10:09:06;42.07;13.59
52297;DHT22;38244;51.046;17.038;2022-08-07T10:18:10;39.71;15.03
52297;DHT22;38244;51.046;17.038;2022-08-07T10:20:52;38.41;15.76
52297;DHT22;38244;51.046;17.038;2022-08-07T10:38:13;32.97;20.58
52297;DHT22;38244;51.046;17.038;2022-08-07T10:40:52;32.42;21.65
52297;DHT22;38244;51.046;17.038;2022-08-07T10:43:26;32.01;21.02
52297;DHT22;38244;51.046;17.038;2022-08-07T10:46:12;31.48;22.44
52297;DHT22;38244;51.046;17.038;2022-08-07T10:48:52;31.07;23.01
52297;DHT22;38244;51.046;17.038;2022-08-07T10:51:39;30.87;24.53
52297;DHT22;38244;51.046;17.038;2022-08-07T10:54:42;30.69;23.40
52297;DHT22;38244;51.046;17.038;2022-08-07T11:00:05;30.61;24.96
52297;DHT22;38244;51.046;17.038;2022-08-07T11:03:04;30.39;23.83
52297;DHT22;38244;51.046;17.038;2022-08-07T11:05:51;30.09;24.54
52297;DHT22;38244;51.046;17.038;2022-08-07T11:09:09;29.81;25.28
52297;DHT22;38244;51.046;17.038;2022-08-07T11:11:52;29.55;25.83
52297;DHT22;38244;51.046;17.038;2022-08-07T11:14:27;29.18;26.37
52297;DHT22;38244;51.046;17.038;2022-08-07T11:17:16;28.96;26.08
52297;DHT22;38244;51.046;17.038;2022-08-07T11:19:58;28.67;27.26
52297;DHT22;38244;51.046;17.038;2022-08-07T11:22:28;28.52;26.29
52297;DHT22;38244;51.046;17.038;2022-08-07T11:27:58;27.87;25.62
52297;DHT22;38244;51.046;17.038;2022-08-07T11:30:32;27.46;25.66
52297;DHT22;38244;51.046;17.038;2022-08-07T11:33:20;27.22;27.40
52297;DHT22;38244;51.046;17.038;2022-08-07T11:42:07;26.87;28.44
52297;DHT22;38244;51.046;17.038;2022-08-07T12:08:29;26.21;28.72
52297;DHT22;38244;51.046;17.038;2022-08-07T12:11:15;26.09;28.46
52297;DHT22;38244;51.046;17.038;2022-08-07T12:14:23;25.99;31.09
52297;DHT22;38244;51.046;17.038;2022-08-07T12:16:50;25.92;33.34
52297;DHT22;38244;51.046;17.038;2022-08-07T12:19:59;25.91;31.22
52297;DHT22;38244;51.046;17.038;2022-08-07T12:25:44;25.94;28.94
52297;DHT22;38244;51.046;17.038;2022-08-07T12:31:34;25.64;28.86
52297;DHT22;38244;51.046;17.038;2022-08-07T12:33:57;25.45;29.16
52297;DHT22;38244;51.046;17.038;2022-08-07T12:36:24;25.30;30.97
52297;DHT22;38244;51.046;17.038;2022-08-07T12:38:54;25.30;31.80
52297;DHT22;38244;51.046;17.038;2022-08-07T12:41:24;25.29;32.86
52297;DHT22;38244;51.046;17.038;2022-08-07T12:43:55;25.35;33.35
52297;DHT22;38244;51.046;17.038;2022-08-07T12:49:56;25.52;30.40
52297;DHT22;38244;51.046;17.038;2022-08-07T12:55:33;25.53;29.28
52297;DHT22;38244;51.046;17.038;2022-08-07T13:17:27;25.18;32.98
52297;DHT22;38244;51.046;17.038;2022-08-07T13:25:27;25.28;30.81
52297;DHT22;38244;51.046;17.038;2022-08-07T13:28:02;25.29;30.88
52297;DHT22;38244;51.046;17.038;2022-08-07T13:30:32;25.38;31.78
52297;DHT22;38244;51.046;17.038;2022-08-07T13:35:51;25.38;31.91
52297;DHT22;38244;51.046;17.038;2022-08-07T13:41:44;25.45;32.38
52297;DHT22;38244;51.046;17.038;2022-08-07T13:44:09;25.49;32.26
52297;DHT22;38244;51.046;17.038;2022-08-07T13:46:40;25.50;30.51
52297;DHT22;38244;51.046;17.038;2022-08-07T13:52:37;25.52;29.94
52297;DHT22;38244;51.046;17.038;2022-08-07T13:55:15;25.46;29.52
52297;DHT22;38244;51.046;17.038;2022-08-07T14:01:32;25.59;32.65
52297;DHT22;38244;51.046;17.038;2022-08-07T14:04:11;25.63;31.86
52297;DHT22;38244;51.046;17.038;2022-08-07T14:06:46;25.64;30.45
52297;DHT22;38244;51.046;17.038;2022-08-07T14:13:17;25.53;31.40
52297;DHT22;38244;51.046;17.038;2022-08-07T14:16:04;25.49;30.77
52297;DHT22;38244;51.046;17.038;2022-08-07T14:18:49;25.40;31.32
52297;DHT22;38244;51.046;17.038;2022-08-07T14:21:41;25.38;33.14
52297;DHT22;38244;51.046;17.038;2022-08-07T14:24:26;25.38;32.05
52297;DHT22;38244;51.046;17.038;2022-08-07T14:26:57;25.43;31.47
52297;DHT22;38244;51.046;17.038;2022-08-07T14:29:32;25.50;32.09
52297;DHT22;38244;51.046;17.038;2022-08-07T14:34:45;25.71;33.26
52297;DHT22;38244;51.046;17.038;2022-08-07T14:37:18;25.77;31.93
52297;DHT22;38244;51.046;17.038;2022-08-07T14:39:46;25.74;31.81
52297;DHT22;38244;51.046;17.038;2022-08-07T14:42:13;25.70;33.42
52297;DHT22;38244;51.046;17.038;2022-08-07T14:44:51;25.74;33.12
52297;DHT22;38244;51.046;17.038;2022-08-07T14:47:18;25.77;33.27
52297;DHT22;38244;51.046;17.038;2022-08-07T14:52:39;25.90;30.55
52297;DHT22;38244;51.046;17.038;2022-08-07T14:55:46;25.77;30.22
52297;DHT22;38244;51.046;17.038;2022-08-07T14:58:16;25.62;29.80
52297;DHT22;38244;51.046;17.038;2022-08-07T15:01:02;25.42;29.77
52297;DHT22;38244;51.046;17.038;2022-08-07T15:03:29;25.30;32.05
52297;DHT22;38244;51.046;17.038;2022-08-07T15:11:08;25.28;31.92
52297;DHT22;38244;51.046;17.038;2022-08-07T15:20:04;25.35;33.57
52297;DHT22;38244;51.046;17.038;2022-08-07T15:28:59;25.66;31.33
52297;DHT22;38244;51.046;17.038;2022-08-07T15:31:26;25.69;30.34
52297;DHT22;38244;51.046;17.038;2022-08-07T15:33:58;25.53;30.27
52297;DHT22;38244;51.046;17.038;2022-08-07T15:36:26;25.43;30.08
52297;DHT22;38244;51.046;17.038;2022-08-07T15:38:54;25.32;30.13
52297;DHT22;38244;51.046;17.038;2022-08-07T15:41:28;25.21;30.76
52297;DHT22;38244;51.046;17.038;2022-08-07T15:44:09;25.18;31.50
52297;DHT22;38244;51.046;17.038;2022-08-07T15:46:37;25.19;31.76
52297;DHT22;38244;51.046;17.038;2022-08-07T15:56:46;25.26;33.24
52297;DHT22;38244;51.046;17.038;2022-08-07T16:01:51;25.22;32.27
52297;DHT22;38244;51.046;17.038;2022-08-07T16:04:21;25.25;32.77
52297;DHT22;38244;51.046;17.038;2022-08-07T16:06:51;25.23;32.95
52297;DHT22;38244;51.046;17.038;2022-08-07T16:15:36;25.07;31.45
52297;DHT22;38244;51.046;17.038;2022-08-07T16:20:45;24.98;31.98
52297;DHT22;38244;51.046;17.038;2022-08-07T16:29:48;24.71;30.79
52297;DHT22;38244;51.046;17.038;2022-08-07T16:32:24;24.59;32.81
52297;DHT22;38244;51.046;17.038;2022-08-07T16:34:54;24.59;33.08
52297;DHT22;38244;51.046;17.038;2022-08-07T16:40:56;24.64;32.93
52297;DHT22;38244;51.046;17.038;2022-08-07T16:58:15;24.36;31.19
52297;DHT22;38244;51.046;17.038;2022-08-07T17:10:02;23.97;34.21
52297;DHT22;38244;51.046;17.038;2022-08-07T17:12:52;23.92;34.83
52297;DHT22;38244;51.046;17.038;2022-08-07T17:15:27;23.90;34.75
52297;DHT22;38244;51.046;17.038;2022-08-07T17:20:44;23.79;35.14
52297;DHT22;38244;51.046;17.038;2022-08-07T17:32:10;23.66;36.15
52297;DHT22;38244;51.046;17.038;2022-08-07T17:34:44;23.65;35.76
52297;DHT22;38244;51.046;17.038;2022-08-07T17:37:44;23.59;36.48
52297;DHT22;38244;51.046;17.038;2022-08-07T17:43:05;23.50;36.47
52297;DHT22;38244;51.046;17.038;2022-08-07T17:45:52;23.45;37.05
52297;DHT22;38244;51.046;17.038;2022-08-07T17:48:27;23.37;36.82
52297;DHT22;38244;51.046;17.038;2022-08-07T17:56:33;23.11;37.09
52297;DHT22;38244;51.046;17.038;2022-08-07T17:59:22;22.99;37.39
52297;DHT22;38244;51.046;17.038;2022-08-07T18:07:35;22.66;38.20
52297;DHT22;38244;51.046;17.038;2022-08-07T18:10:07;22.56;38.72
52297;DHT22;38244;51.046;17.038;2022-08-07T18:16:09;22.35;38.84
52297;DHT22;38244;51.046;17.038;2022-08-07T18:18:49;22.23;39.55
52297;DHT22;38244;51.046;17.038;2022-08-07T18:21:29;22.13;39.53
52297;DHT22;38244;51.046;17.038;2022-08-07T18:24:33;22.02;40.15
52297;DHT22;38244;51.046;17.038;2022-08-07T18:30:08;21.79;40.55
52297;DHT22;38244;51.046;17.038;2022-08-07T18:39:57;21.44;41.35
52297;DHT22;38244;51.046;17.038;2022-08-07T18:42:35;21.34;41.75
52297;DHT22;38244;51.046;17.038;2022-08-07T18:47:50;21.14;42.52
52297;DHT22;38244;51.046;17.038;2022-08-07T18:53:36;20.96;43.08
52297;DHT22;38244;51.046;17.038;2022-08-07T19:09:11;20.41;44.51
52297;DHT22;38244;51.046;17.038;2022-08-07T19:17:28;20.13;44.95
52297;DHT22;38244;51.046;17.038;2022-08-07T19:20:23;20.11;45.37
52297;DHT22;38244;51.046;17.038;2022-08-07T19:25:40;19.93;45.81
52297;DHT22;38244;51.046;17.038;2022-08-07T19:28:14;19.86;46.02
52297;DHT22;38244;51.046;17.038;2022-08-07T19:30:44;19.82;46.73
52297;DHT22;38244;51.046;17.038;2022-08-07T19:36:13;19.72;46.71
52297;DHT22;38244;51.046;17.038;2022-08-07T19:38:50;19.65;47.10
52297;DHT22;38244;51.046;17.038;2022-08-07T19:41:23;19.58;47.32
52297;DHT22;38244;51.046;17.038;2022-08-07T19:46:53;19.49;47.09
52297;DHT22;38244;51.046;17.038;2022-08-07T19:49:27;19.42;47.18
52297;DHT22;38244;51.046;17.038;2022-08-07T19:52:03;19.30;46.89
52297;DHT22;38244;51.046;17.038;2022-08-07T19:54:44;19.26;47.35
52297;DHT22;38244;51.046;17.038;2022-08-07T19:57:18;19.13;47.04
52297;DHT22;38244;51.046;17.038;2022-08-07T20:00:07;19.04;47.68
52297;DHT22;38244;51.046;17.038;2022-08-07T20:03:19;18.93;47.49
52297;DHT22;38244;51.046;17.038;2022-08-07T20:05:42;18.83;48.08
52297;DHT22;38244;51.046;17.038;2022-08-07T20:08:13;18.74;48.00
52297;DHT22;38244;51.046;17.038;2022-08-07T20:10:52;18.67;48.30
52297;DHT22;38244;51.046;17.038;2022-08-07T20:16:07;18.53;48.76
52297;DHT22;38244;51.046;17.038;2022-08-07T20:18:55;18.48;48.78
52297;DHT22;38244;51.046;17.038;2022-08-07T20:21:30;18.41;50.01
52297;DHT22;38244;51.046;17.038;2022-08-07T20:24:17;18.36;49.09
52297;DHT22;38244;51.046;17.038;2022-08-07T20:26:39;18.32;49.31
52297;DHT22;38244;51.046;17.038;2022-08-07T20:29:35;18.24;49.62
52297;DHT22;38244;51.046;17.038;2022-08-07T20:32:12;18.19;49.92
52297;DHT22;38244;51.046;17.038;2022-08-07T20:34:40;18.15;49.85
52297;DHT22;38244;51.046;17.038;2022-08-07T20:37:12;18.11;50.18
52297;DHT22;38244;51.046;17.038;2022-08-07T20:39:44;18.07;50.61
52297;DHT22;38244;51.046;17.038;2022-08-07T20:42:12;18.00;50.75
52297;DHT22;38244;51.046;17.038;2022-08-07T20:44:43;18.00;50.72
52297;DHT22;38244;51.046;17.038;2022-08-07T20:47:14;17.96;50.91
52297;DHT22;38244;51.046;17.038;2022-08-07T20:49:42;17.93;51.10
52297;DHT22;38244;51.046;17.038;2022-08-07T20:52:24;17.89;51.19
52297;DHT22;38244;51.046;17.038;2022-08-07T20:54:51;17.84;51.45
52297;DHT22;38244;51.046;17.038;2022-08-07T20:57:22;17.82;51.35
52297;DHT22;38244;51.046;17.038;2022-08-07T20:59:49;17.77;52.05
52297;DHT22;38244;51.046;17.038;2022-08-07T21:02:19;17.74;51.88
52297;DHT22;38244;51.046;17.038;2022-08-07T21:05:11;17.70;51.91
52297;DHT22;38244;51.046;17.038;2022-08-07T21:07:40;17.66;52.06
52297;DHT22;38244;51.046;17.038;2022-08-07T21:10:09;17.63;53.07
52297;DHT22;38244;51.046;17.038;2022-08-07T21:12:36;17.61;52.85
52297;DHT22;38244;51.046;17.038;2022-08-07T21:15:06;17.57;52.64
52297;DHT22;38244;51.046;17.038;2022-08-07T21:17:35;17.53;53.23
52297;DHT22;38244;51.046;17.038;2022-08-07T21:20:09;17.49;52.91
52297;DHT22;38244;51.046;17.038;2022-08-07T21:22:50;17.42;53.03
52297;DHT22;38244;51.046;17.038;2022-08-07T21:25:35;17.39;53.25
52297;DHT22;38244;51.046;17.038;2022-08-07T21:28:20;17.35;53.35
52297;DHT22;38244;51.046;17.038;2022-08-07T21:33:47;17.27;54.55
52297;DHT22;38244;51.046;17.038;2022-08-07T21:36:29;17.25;53.89
52297;DHT22;38244;51.046;17.038;2022-08-07T21:39:27;17.21;54.04
52297;DHT22;38244;51.046;17.038;2022-08-07T21:42:03;17.17;53.86
52297;DHT22;38244;51.046;17.038;2022-08-07T21:44:59;17.14;53.87
52297;DHT22;38244;51.046;17.038;2022-08-07T21:47:52;17.13;53.98
52297;DHT22;38244;51.046;17.038;2022-08-07T21:50:38;17.07;53.90
52297;DHT22;38244;51.046;17.038;2022-08-07T21:53:23;17.06;54.36
52297;DHT22;38244;51.046;17.038;2022-08-07T21:58:59;16.97;54.97
52297;DHT22;38244;51.046;17.038;2022-08-07T22:01:36;16.93;54.71